sensor_id;sensor_type;location;lat;lon;timestamp;pressure;altitude;pressure_sealevel;temperature;humidity
17855;BME280;9053;53.358;6.382;2024-02-04T00:01:17;101997.47;;;8.41;100.00
17855;BME280;9053;53.358;6.382;2024-02-04T00:03:50;101987.81;;;8.40;100.00
17855;BME280;9053;53.358;6.382;2024-02-04T00:06:20;101986.66;;;8.36;100.00
17855;BME280;9053;53.358;6.382;2024-02-04T00:08:50;101986.59;;;8.35;100.00
17855;BME280;9053;53.358;6.382;2024-02-04T00:11:20;101986.47;;;8.33;100.00
17855;BME280;9053;53.358;6.382;2024-02-04T00:13:50;101980.22;;;8.31;100.00
17855;BME280;9053;53.358;6.382;2024-02-04T00:16:20;101987.91;;;8.28;100.00
17855;BME280;9053;53.358;6.382;2024-02-04T00:18:52;101984.28;;;8.26;100.00
17855;BME280;9053;53.358;6.382;2024-02-04T00:21:22;101983.31;;;8.24;100.00
17855;BME280;9053;53.358;6.382;2024-02-04T00:23:53;101991.19;;;8.24;100.00
17855;BME280;9053;53.358;6.382;2024-02-04T00:26:23;101990.25;;;8.23;100.00
17855;BME280;9053;53.358;6.382;2024-02-04T00:28:53;102005.00;;;8.21;100.00
17855;BME280;9053;53.358;6.382;2024-02-04T00:31:23;102006.63;;;8.19;100.00
17855;BME280;9053;53.358;6.382;2024-02-04T00:33:55;102013.56;;;8.19;100.00
17855;BME280;9053;53.358;6.382;2024-02-04T00:36:25;102021.31;;;8.17;100.00
17855;BME280;9053;53.358;6.382;2024-02-04T00:38:55;102015.91;;;8.14;100.00
17855;BME280;9053;53.358;6.382;2024-02-04T00:41:25;102015.91;;;8.14;100.00
17855;BME280;9053;53.358;6.382;2024-02-04T00:43:55;102014.97;;;8.14;100.00
17855;BME280;9053;53.358;6.382;2024-02-04T00:46:25;102008.84;;;8.13;100.00
17855;BME280;9053;53.358;6.382;2024-02-04T00:48:58;102006.03;;;8.10;100.00
17855;BME280;9053;53.358;6.382;2024-02-04T00:51:28;102005.22;;;8.11;100.00
17855;BME280;9053;53.358;6.382;2024-02-04T00:53:58;101990.31;;;8.10;100.00
17855;BME280;9053;53.358;6.382;2024-02-04T00:56:28;101980.44;;;8.06;100.00
17855;BME280;9053;53.358;6.382;2024-02-04T00:58:58;101984.88;;;8.07;100.00
17855;BME280;9053;53.358;6.382;2024-02-04T01:01:31;101983.16;;;8.08;100.00
17855;BME280;9053;53.358;6.382;2024-02-04T01:04:04;101979.53;;;8.06;100.00
17855;BME280;9053;53.358;6.382;2024-02-04T01:06:35;101983.97;;;8.07;100.00
17855;BME280;9053;53.358;6.382;2024-02-04T01:09:22;101979.53;;;8.06;100.00
17855;BME280;9053;53.358;6.382;2024-02-04T01:11:52;101978.63;;;8.05;100.00
17855;BME280;9053;53.358;6.382;2024-02-04T01:14:22;101981.38;;;8.07;100.00
17855;BME280;9053;53.358;6.382;2024-02-04T01:16:52;101976.91;;;8.06;100.00
17855;BME280;9053;53.358;6.382;2024-02-04T01:19:27;101968.06;;;8.03;100.00
17855;BME280;9053;53.358;6.382;2024-02-04T01:21:57;101972.38;;;8.03;100.00
17855;BME280;9053;53.358;6.382;2024-02-04T01:24:27;101966.16;;;8.01;100.00
17855;BME280;9053;53.358;6.382;2024-02-04T01:26:59;101972.22;;;8.00;100.00
17855;BME280;9053;53.358;6.382;2024-02-04T01:29:29;101975.66;;;7.99;100.00
17855;BME280;9053;53.358;6.382;2024-02-04T01:31:59;101978.88;;;7.95;100.00
17855;BME280;9053;53.358;6.382;2024-02-04T01:34:32;101974.25;;;7.91;100.00
17855;BME280;9053;53.358;6.382;2024-02-04T01:37:02;101970.72;;;7.90;100.00
17855;BME280;9053;53.358;6.382;2024-02-04T01:39:32;101967.22;;;7.90;100.00
17855;BME280;9053;53.358;6.382;2024-02-04T01:42:03;101968.94;;;7.89;100.00
17855;BME280;9053;53.358;6.382;2024-02-04T01:44:33;101969.72;;;7.88;100.00
17855;BME280;9053;53.358;6.382;2024-02-04T01:47:04;101961.78;;;7.87;100.00
17855;BME280;9053;53.358;6.382;2024-02-04T01:49:39;101952.91;;;7.85;100.00
17855;BME280;9053;53.358;6.382;2024-02-04T01:52:09;101964.13;;;7.82;100.00
17855;BME280;9053;53.358;6.382;2024-02-04T01:54:42;101939.53;;;7.80;100.00
17855;BME280;9053;53.358;6.382;2024-02-04T01:57:12;101935.19;;;7.80;100.00
17855;BME280;9053;53.358;6.382;2024-02-04T01:59:44;101938.53;;;7.78;100.00
17855;BME280;9053;53.358;6.382;2024-02-04T02:02:14;101932.28;;;7.76;100.00
17855;BME280;9053;53.358;6.382;2024-02-04T02:04:48;101935.84;;;7.76;100.00
17855;BME280;9053;53.358;6.382;2024-02-04T02:07:18;101946.19;;;7.75;100.00
17855;BME280;9053;53.358;6.382;2024-02-04T02:09:51;101932.91;;;7.72;100.00
17855;BME280;9053;53.358;6.382;2024-02-04T02:12:24;101940.78;;;7.72;100.00
17855;BME280;9053;53.358;6.382;2024-02-04T02:14:59;101933.72;;;7.71;100.00
17855;BME280;9053;53.358;6.382;2024-02-04T02:17:38;101938.03;;;7.70;100.00
17855;BME280;9053;53.358;6.382;2024-02-04T02:20:18;101932.72;;;7.69;100.00
17855;BME280;9053;53.358;6.382;2024-02-04T02:22:53;101936.13;;;7.68;100.00
17855;BME280;9053;53.358;6.382;2024-02-04T02:25:30;101931.72;;;7.67;100.00
17855;BME280;9053;53.358;6.382;2024-02-04T02:28:01;101933.44;;;7.66;100.00
17855;BME280;9053;53.358;6.382;2024-02-04T02:30:31;101941.31;;;7.66;100.00
17855;BME280;9053;53.358;6.382;2024-02-04T02:33:02;101937.84;;;7.67;100.00
17855;BME280;9053;53.358;6.382;2024-02-04T02:35:33;101943.81;;;7.65;100.00
17855;BME280;9053;53.358;6.382;2024-02-04T02:38:13;101936.78;;;7.64;100.00
17855;BME280;9053;53.358;6.382;2024-02-04T02:40:54;101940.38;;;7.66;100.00
17855;BME280;9053;53.358;6.382;2024-02-04T02:43:29;101936.97;;;7.67;100.00
17855;BME280;9053;53.358;6.382;2024-02-04T02:46:00;101930.00;;;7.67;100.00
17855;BME280;9053;53.358;6.382;2024-02-04T02:48:30;101923.94;;;7.68;100.00
17855;BME280;9053;53.358;6.382;2024-02-04T02:51:01;101929.09;;;7.67;100.00
17855;BME280;9053;53.358;6.382;2024-02-04T02:53:30;101920.53;;;7.69;100.00
17855;BME280;9053;53.358;6.382;2024-02-04T02:56:04;101916.09;;;7.68;100.00
17855;BME280;9053;53.358;6.382;2024-02-04T02:58:35;101910.06;;;7.69;100.00
17855;BME280;9053;53.358;6.382;2024-02-04T03:01:05;101908.25;;;7.68;100.00
17855;BME280;9053;53.358;6.382;2024-02-04T03:03:35;101904.72;;;7.68;100.00
17855;BME280;9053;53.358;6.382;2024-02-04T03:06:05;101904.66;;;7.66;100.00
17855;BME280;9053;53.358;6.382;2024-02-04T03:08:35;101906.25;;;7.64;100.00
17855;BME280;9053;53.358;6.382;2024-02-04T03:11:08;101926.19;;;7.62;100.00
17855;BME280;9053;53.358;6.382;2024-02-04T03:13:38;101937.50;;;7.61;100.00
17855;BME280;9053;53.358;6.382;2024-02-04T03:16:10;101931.25;;;7.59;100.00
17855;BME280;9053;53.358;6.382;2024-02-04T03:18:41;101916.31;;;7.58;100.00
17855;BME280;9053;53.358;6.382;2024-02-04T03:21:12;101907.69;;;7.59;100.00
17855;BME280;9053;53.358;6.382;2024-02-04T03:23:42;101909.41;;;7.58;100.00
17855;BME280;9053;53.358;6.382;2024-02-04T03:26:16;101909.41;;;7.58;100.00
17855;BME280;9053;53.358;6.382;2024-02-04T03:28:47;101917.34;;;7.60;100.00
17855;BME280;9053;53.358;6.382;2024-02-04T03:31:19;101906.88;;;7.60;100.00
17855;BME280;9053;53.358;6.382;2024-02-04T03:33:50;101922.50;;;7.58;100.00
17855;BME280;9053;53.358;6.382;2024-02-04T03:36:22;101923.38;;;7.59;100.00
17855;BME280;9053;53.358;6.382;2024-02-04T03:38:52;101910.31;;;7.59;100.00
17855;BME280;9053;53.358;6.382;2024-02-04T03:41:25;101908.69;;;7.61;100.00
17855;BME280;9053;53.358;6.382;2024-02-04T03:43:55;101919.16;;;7.61;100.00
17855;BME280;9053;53.358;6.382;2024-02-04T03:46:26;101914.91;;;7.63;100.00
17855;BME280;9053;53.358;6.382;2024-02-04T03:48:58;101913.28;;;7.65;100.00
17855;BME280;9053;53.358;6.382;2024-02-04T03:51:28;101913.28;;;7.65;100.00
17855;BME280;9053;53.358;6.382;2024-02-04T03:53:59;101890.53;;;7.64;100.00
17855;BME280;9053;53.358;6.382;2024-02-04T03:56:31;101892.28;;;7.64;100.00
17855;BME280;9053;53.358;6.382;2024-02-04T03:59:01;101890.72;;;7.67;100.00
17855;BME280;9053;53.358;6.382;2024-02-04T04:01:31;101889.84;;;7.67;100.00
17855;BME280;9053;53.358;6.382;2024-02-04T04:04:02;101879.53;;;7.70;100.00
17855;BME280;9053;53.358;6.382;2024-02-04T04:06:33;101882.06;;;7.68;100.00
17855;BME280;9053;53.358;6.382;2024-02-04T04:09:03;101867.34;;;7.70;100.00
17855;BME280;9053;53.358;6.382;2024-02-04T04:11:36;101885.78;;;7.72;100.00
17855;BME280;9053;53.358;6.382;2024-02-04T04:14:06;101881.63;;;7.75;100.00
17855;BME280;9053;53.358;6.382;2024-02-04T04:16:36;101895.63;;;7.76;100.00
17855;BME280;9053;53.358;6.382;2024-02-04T04:19:06;101897.63;;;7.80;100.00
17855;BME280;9053;53.358;6.382;2024-02-04T04:21:37;101898.72;;;7.84;100.00
17855;BME280;9053;53.358;6.382;2024-02-04T04:24:07;101897.91;;;7.85;100.00
17855;BME280;9053;53.358;6.382;2024-02-04T04:26:40;101881.38;;;7.86;100.00
17855;BME280;9053;53.358;6.382;2024-02-04T04:29:10;101885.72;;;7.85;100.00
17855;BME280;9053;53.358;6.382;2024-02-04T04:31:39;101875.25;;;7.85;100.00
17855;BME280;9053;53.358;6.382;2024-02-04T04:34:09;101866.66;;;7.88;100.00
17855;BME280;9053;53.358;6.382;2024-02-04T04:36:40;101871.19;;;7.90;100.00
17855;BME280;9053;53.358;6.382;2024-02-04T04:39:10;101868.50;;;7.89;100.00
17855;BME280;9053;53.358;6.382;2024-02-04T04:41:44;101861.59;;;7.91;100.00
17855;BME280;9053;53.358;6.382;2024-02-04T04:44:14;101864.22;;;7.91;100.00
17855;BME280;9053;53.358;6.382;2024-02-04T04:46:43;101863.44;;;7.92;100.00
17855;BME280;9053;53.358;6.382;2024-02-04T04:49:14;101855.56;;;7.92;100.00
17855;BME280;9053;53.358;6.382;2024-02-04T04:51:44;101849.44;;;7.91;100.00
17855;BME280;9053;53.358;6.382;2024-02-04T04:54:15;101851.97;;;7.90;100.00
17855;BME280;9053;53.358;6.382;2024-02-04T04:56:47;101840.75;;;7.92;100.00
17855;BME280;9053;53.358;6.382;2024-02-04T04:59:17;101842.56;;;7.93;100.00
17855;BME280;9053;53.358;6.382;2024-02-04T05:01:47;101807.72;;;7.94;100.00
17855;BME280;9053;53.358;6.382;2024-02-04T05:04:18;101804.09;;;7.92;100.00
17855;BME280;9053;53.358;6.382;2024-02-04T05:06:52;101819.97;;;7.95;100.00
17855;BME280;9053;53.358;6.382;2024-02-04T05:09:23;101803.38;;;7.95;100.00
17855;BME280;9053;53.358;6.382;2024-02-04T05:11:57;101801.75;;;7.97;100.00
17855;BME280;9053;53.358;6.382;2024-02-04T05:14:27;101810.50;;;7.97;100.00
17855;BME280;9053;53.358;6.382;2024-02-04T05:16:57;101810.50;;;7.97;100.00
17855;BME280;9053;53.358;6.382;2024-02-04T05:19:27;101809.59;;;7.97;100.00
17855;BME280;9053;53.358;6.382;2024-02-04T05:21:57;101830.63;;;7.98;100.00
17855;BME280;9053;53.358;6.382;2024-02-04T05:24:27;101832.47;;;7.99;100.00
17855;BME280;9053;53.358;6.382;2024-02-04T05:26:59;101833.19;;;7.97;100.00
17855;BME280;9053;53.358;6.382;2024-02-04T05:29:30;101835.16;;;8.01;100.00
17855;BME280;9053;53.358;6.382;2024-02-04T05:32:00;101830.75;;;8.00;100.00
17855;BME280;9053;53.358;6.382;2024-02-04T05:34:30;101825.59;;;8.01;100.00
17855;BME280;9053;53.358;6.382;2024-02-04T05:37:01;101815.91;;;8.00;100.00
17855;BME280;9053;53.358;6.382;2024-02-04T05:39:31;101814.19;;;8.01;100.00
17855;BME280;9053;53.358;6.382;2024-02-04T05:42:04;101811.50;;;7.99;100.00
17855;BME280;9053;53.358;6.382;2024-02-04T05:44:34;101806.25;;;7.99;100.00
17855;BME280;9053;53.358;6.382;2024-02-04T05:47:05;101823.00;;;8.01;100.00
17855;BME280;9053;53.358;6.382;2024-02-04T05:49:37;101808.25;;;8.03;100.00
17855;BME280;9053;53.358;6.382;2024-02-04T05:52:08;101810.06;;;8.05;100.00
17855;BME280;9053;53.358;6.382;2024-02-04T05:54:38;101803.94;;;8.04;100.00
17855;BME280;9053;53.358;6.382;2024-02-04T05:57:11;101793.53;;;8.06;100.00
17855;BME280;9053;53.358;6.382;2024-02-04T05:59:41;101797.88;;;8.05;100.00
17855;BME280;9053;53.358;6.382;2024-02-04T06:02:11;101793.63;;;8.07;100.00
17855;BME280;9053;53.358;6.382;2024-02-04T06:04:41;101799.75;;;8.08;100.00
17855;BME280;9053;53.358;6.382;2024-02-04T06:07:11;101795.41;;;8.08;100.00
17855;BME280;9053;53.358;6.382;2024-02-04T06:09:41;101784.22;;;8.11;100.00
17855;BME280;9053;53.358;6.382;2024-02-04T06:12:13;101799.13;;;8.12;100.00
17855;BME280;9053;53.358;6.382;2024-02-04T06:14:43;101792.78;;;8.08;100.00
17855;BME280;9053;53.358;6.382;2024-02-04T06:17:13;101804.28;;;8.10;100.00
17855;BME280;9053;53.358;6.382;2024-02-04T06:19:43;101804.09;;;8.07;100.00
17855;BME280;9053;53.358;6.382;2024-02-04T06:22:14;101793.78;;;8.10;100.00
17855;BME280;9053;53.358;6.382;2024-02-04T06:24:44;101776.44;;;8.12;100.00
17855;BME280;9053;53.358;6.382;2024-02-04T06:27:17;101775.72;;;8.15;100.00
17855;BME280;9053;53.358;6.382;2024-02-04T06:29:47;101786.22;;;8.15;100.00
17855;BME280;9053;53.358;6.382;2024-02-04T06:32:17;101785.31;;;8.14;100.00
17855;BME280;9053;53.358;6.382;2024-02-04T06:34:47;101773.00;;;8.13;100.00
17855;BME280;9053;53.358;6.382;2024-02-04T06:37:18;101769.59;;;8.14;100.00
17855;BME280;9053;53.358;6.382;2024-02-04T06:39:48;101776.72;;;8.17;100.00
17855;BME280;9053;53.358;6.382;2024-02-04T06:42:21;101785.47;;;8.17;100.00
17855;BME280;9053;53.358;6.382;2024-02-04T06:44:52;101802.00;;;8.16;100.00
17855;BME280;9053;53.358;6.382;2024-02-04T06:47:23;101799.59;;;8.19;100.00
17855;BME280;9053;53.358;6.382;2024-02-04T06:49:53;101790.00;;;8.20;100.00
17855;BME280;9053;53.358;6.382;2024-02-04T06:52:24;101784.03;;;8.22;100.00
17855;BME280;9053;53.358;6.382;2024-02-04T06:54:54;101782.41;;;8.24;100.00
17855;BME280;9053;53.358;6.382;2024-02-04T06:57:26;101777.34;;;8.28;100.00
17855;BME280;9053;53.358;6.382;2024-02-04T06:59:56;101767.75;;;8.28;100.00
17855;BME280;9053;53.358;6.382;2024-02-04T07:02:26;101760.91;;;8.30;100.00
17855;BME280;9053;53.358;6.382;2024-02-04T07:04:56;101756.66;;;8.32;100.00
17855;BME280;9053;53.358;6.382;2024-02-04T07:07:26;101745.28;;;8.32;100.00
17855;BME280;9053;53.358;6.382;2024-02-04T07:09:56;101754.19;;;8.35;100.00
17855;BME280;9053;53.358;6.382;2024-02-04T07:12:29;101756.72;;;8.34;100.00
17855;BME280;9053;53.358;6.382;2024-02-04T07:14:59;101740.91;;;8.32;100.00
17855;BME280;9053;53.358;6.382;2024-02-04T07:17:29;101738.47;;;8.35;100.00
17855;BME280;9053;53.358;6.382;2024-02-04T07:19:59;101744.59;;;8.36;100.00
17855;BME280;9053;53.358;6.382;2024-02-04T07:22:30;101744.06;;;8.41;100.00
17855;BME280;9053;53.358;6.382;2024-02-04T07:25:04;101736.84;;;8.37;100.00
17855;BME280;9053;53.358;6.382;2024-02-04T07:27:37;101747.41;;;8.39;100.00
17855;BME280;9053;53.358;6.382;2024-02-04T07:30:10;101744.06;;;8.41;100.00
17855;BME280;9053;53.358;6.382;2024-02-04T07:32:40;101732.69;;;8.41;100.00
17855;BME280;9053;53.358;6.382;2024-02-04T07:35:10;101756.56;;;8.45;100.00
17855;BME280;9053;53.358;6.382;2024-02-04T07:37:40;101749.59;;;8.46;100.00
17855;BME280;9053;53.358;6.382;2024-02-04T07:40:11;101755.72;;;8.47;100.00
17855;BME280;9053;53.358;6.382;2024-02-04T07:42:44;101754.03;;;8.47;100.00
17855;BME280;9053;53.358;6.382;2024-02-04T07:45:15;101749.84;;;8.51;100.00
17855;BME280;9053;53.358;6.382;2024-02-04T07:47:45;101761.25;;;8.51;100.00
17855;BME280;9053;53.358;6.382;2024-02-04T07:50:16;101758.72;;;8.53;100.00
17855;BME280;9053;53.358;6.382;2024-02-04T07:52:46;101762.22;;;8.53;100.00
17855;BME280;9053;53.358;6.382;2024-02-04T07:55:16;101763.22;;;8.55;100.00
17855;BME280;9053;53.358;6.382;2024-02-04T07:57:48;101758.97;;;8.57;100.00
17855;BME280;9053;53.358;6.382;2024-02-04T08:00:38;101758.31;;;8.61;100.00
17855;BME280;9053;53.358;6.382;2024-02-04T08:03:09;101747.94;;;8.63;100.00
17855;BME280;9053;53.358;6.382;2024-02-04T08:05:39;101754.16;;;8.65;100.00
17855;BME280;9053;53.358;6.382;2024-02-04T08:08:09;101750.44;;;8.61;100.00
17855;BME280;9053;53.358;6.382;2024-02-04T08:10:39;101752.19;;;8.61;100.00
17855;BME280;9053;53.358;6.382;2024-02-04T08:13:11;101748.03;;;8.64;100.00
17855;BME280;9053;53.358;6.382;2024-02-04T08:15:42;101750.81;;;8.68;100.00
17855;BME280;9053;53.358;6.382;2024-02-04T08:18:12;101739.50;;;8.69;100.00
17855;BME280;9053;53.358;6.382;2024-02-04T08:23:22;101741.31;;;8.70;100.00
17855;BME280;9053;53.358;6.382;2024-02-04T08:25:52;101740.38;;;8.69;100.00
17855;BME280;9053;53.358;6.382;2024-02-04T08:28:26;101754.59;;;8.73;100.00
17855;BME280;9053;53.358;6.382;2024-02-04T08:30:56;101752.13;;;8.76;100.00
17855;BME280;9053;53.358;6.382;2024-02-04T08:33:26;101761.00;;;8.78;100.00
17855;BME280;9053;53.358;6.382;2024-02-04T08:35:57;101747.06;;;8.79;100.00
17855;BME280;9053;53.358;6.382;2024-02-04T08:38:27;101756.06;;;8.84;100.00
17855;BME280;9053;53.358;6.382;2024-02-04T08:40:56;101748.31;;;8.85;100.00
17855;BME280;9053;53.358;6.382;2024-02-04T08:43:29;101761.41;;;8.85;100.00
17855;BME280;9053;53.358;6.382;2024-02-04T08:46:00;101747.56;;;8.88;100.00
17855;BME280;9053;53.358;6.382;2024-02-04T08:48:39;101740.03;;;8.94;100.00
17855;BME280;9053;53.358;6.382;2024-02-04T08:51:10;101746.94;;;8.92;100.00
17855;BME280;9053;53.358;6.382;2024-02-04T08:53:43;101742.59;;;8.93;100.00
17855;BME280;9053;53.358;6.382;2024-02-04T08:56:13;101745.38;;;8.96;100.00
17855;BME280;9053;53.358;6.382;2024-02-04T08:58:46;101749.88;;;8.98;100.00
17855;BME280;9053;53.358;6.382;2024-02-04T09:01:15;101755.38;;;9.03;100.00
17855;BME280;9053;53.358;6.382;2024-02-04T09:03:46;101744.06;;;9.04;100.00
17855;BME280;9053;53.358;6.382;2024-02-04T09:06:16;101738.91;;;9.05;100.00
17855;BME280;9053;53.358;6.382;2024-02-04T09:08:46;101743.47;;;9.09;100.00
17855;BME280;9053;53.358;6.382;2024-02-04T09:11:16;101754.06;;;9.11;100.00
17855;BME280;9053;53.358;6.382;2024-02-04T09:13:50;101756.13;;;9.17;100.00
17855;BME280;9053;53.358;6.382;2024-02-04T09:16:20;101754.31;;;9.16;100.00
17855;BME280;9053;53.358;6.382;2024-02-04T09:18:50;101749.06;;;9.16;100.00
17855;BME280;9053;53.358;6.382;2024-02-04T09:21:20;101749.22;;;9.19;100.00
17855;BME280;9053;53.358;6.382;2024-02-04T09:23:50;101737.00;;;9.19;100.00
17855;BME280;9053;53.358;6.382;2024-02-04T09:26:20;101731.94;;;9.22;100.00
17855;BME280;9053;53.358;6.382;2024-02-04T09:28:53;101733.09;;;9.27;100.00
17855;BME280;9053;53.358;6.382;2024-02-04T09:31:23;101748.16;;;9.31;100.00
17855;BME280;9053;53.358;6.382;2024-02-04T09:33:53;101750.88;;;9.33;100.00
17855;BME280;9053;53.358;6.382;2024-02-04T09:36:23;101754.56;;;9.37;100.00
17855;BME280;9053;53.358;6.382;2024-02-04T09:38:53;101736.44;;;9.41;100.00
17855;BME280;9053;53.358;6.382;2024-02-04T09:41:23;101748.81;;;9.44;100.00
17855;BME280;9053;53.358;6.382;2024-02-04T09:43:56;101767.53;;;9.50;100.00
17855;BME280;9053;53.358;6.382;2024-02-04T09:46:30;101766.97;;;9.56;100.00
17855;BME280;9053;53.358;6.382;2024-02-04T09:49:01;101759.88;;;9.54;100.00
17855;BME280;9053;53.358;6.382;2024-02-04T09:51:34;101755.63;;;9.57;100.00
17855;BME280;9053;53.358;6.382;2024-02-04T09:54:05;101753.13;;;9.60;100.00
17855;BME280;9053;53.358;6.382;2024-02-04T09:56:37;101745.34;;;9.61;100.00
17855;BME280;9053;53.358;6.382;2024-02-04T09:59:11;101742.81;;;9.63;100.00
17855;BME280;9053;53.358;6.382;2024-02-04T10:01:41;101731.56;;;9.65;100.00
17855;BME280;9053;53.358;6.382;2024-02-04T10:04:11;101728.69;;;9.61;100.00
17855;BME280;9053;53.358;6.382;2024-02-04T10:06:47;101730.25;;;9.57;100.00
17855;BME280;9053;53.358;6.382;2024-02-04T10:09:17;101721.47;;;9.57;100.00
17855;BME280;9053;53.358;6.382;2024-02-04T10:11:48;101728.56;;;9.58;100.00
17855;BME280;9053;53.358;6.382;2024-02-04T10:14:20;101732.13;;;9.60;100.00
17855;BME280;9053;53.358;6.382;2024-02-04T10:16:51;101727.63;;;9.57;100.00
17855;BME280;9053;53.358;6.382;2024-02-04T10:19:24;101736.19;;;9.53;100.00
17855;BME280;9053;53.358;6.382;2024-02-04T10:21:58;101739.84;;;9.57;100.00
17855;BME280;9053;53.358;6.382;2024-02-04T10:24:29;101740.84;;;9.59;100.00
17855;BME280;9053;53.358;6.382;2024-02-04T10:26:59;101739.38;;;9.64;100.00
17855;BME280;9053;53.358;6.382;2024-02-04T10:29:33;101749.22;;;9.68;100.00
17855;BME280;9053;53.358;6.382;2024-02-04T10:32:04;101730.28;;;9.75;100.00
17855;BME280;9053;53.358;6.382;2024-02-04T10:34:37;101740.25;;;9.81;100.00
17855;BME280;9053;53.358;6.382;2024-02-04T10:37:07;101738.75;;;9.86;99.90
17855;BME280;9053;53.358;6.382;2024-02-04T10:39:37;101735.53;;;9.91;99.86
17855;BME280;9053;53.358;6.382;2024-02-04T10:42:07;101744.53;;;9.96;99.80
17855;BME280;9053;53.358;6.382;2024-02-04T10:44:51;101725.47;;;10.01;99.67
17855;BME280;9053;53.358;6.382;2024-02-04T10:47:38;101737.78;;;10.02;99.39
17855;BME280;9053;53.358;6.382;2024-02-04T10:50:11;101723.81;;;10.03;99.01
17855;BME280;9053;53.358;6.382;2024-02-04T10:52:46;101734.31;;;10.03;98.94
17855;BME280;9053;53.358;6.382;2024-02-04T10:55:17;101741.78;;;10.11;98.70
17855;BME280;9053;53.358;6.382;2024-02-04T10:57:53;101740.78;;;10.09;98.60
17855;BME280;9053;53.358;6.382;2024-02-04T11:00:27;101741.53;;;10.07;98.27
17855;BME280;9053;53.358;6.382;2024-02-04T11:02:59;101748.59;;;10.08;98.25
17855;BME280;9053;53.358;6.382;2024-02-04T11:05:30;101744.19;;;10.07;97.91
17855;BME280;9053;53.358;6.382;2024-02-04T11:08:03;101743.19;;;10.05;97.93
17855;BME280;9053;53.358;6.382;2024-02-04T11:10:35;101736.94;;;10.03;97.89
17855;BME280;9053;53.358;6.382;2024-02-04T11:13:23;101747.41;;;10.01;97.83
17855;BME280;9053;53.358;6.382;2024-02-04T11:15:55;101737.88;;;10.03;97.99
17855;BME280;9053;53.358;6.382;2024-02-04T11:21:38;101725.63;;;10.04;97.92
17855;BME280;9053;53.358;6.382;2024-02-04T11:24:21;101719.69;;;10.08;98.05
17855;BME280;9053;53.358;6.382;2024-02-04T11:26:55;101720.66;;;10.10;97.96
17855;BME280;9053;53.358;6.382;2024-02-04T11:29:28;101715.25;;;10.07;97.99
17855;BME280;9053;53.358;6.382;2024-02-04T11:31:58;101728.50;;;10.08;97.95
17855;BME280;9053;53.358;6.382;2024-02-04T11:34:38;101715.41;;;10.10;98.02
17855;BME280;9053;53.358;6.382;2024-02-04T11:37:15;101711.22;;;10.13;98.23
17855;BME280;9053;53.358;6.382;2024-02-04T11:39:50;101701.00;;;10.19;98.32
17855;BME280;9053;53.358;6.382;2024-02-04T11:42:24;101699.34;;;10.22;98.32
17855;BME280;9053;53.358;6.382;2024-02-04T11:45:10;101700.25;;;10.22;98.37
17855;BME280;9053;53.358;6.382;2024-02-04T11:47:42;101693.47;;;10.27;98.35
17855;BME280;9053;53.358;6.382;2024-02-04T11:50:27;101691.69;;;10.26;98.30
17855;BME280;9053;53.358;6.382;2024-02-04T11:53:04;101690.81;;;10.26;98.13
17855;BME280;9053;53.358;6.382;2024-02-04T11:55:35;101673.16;;;10.23;98.25
17855;BME280;9053;53.358;6.382;2024-02-04T11:58:12;101672.41;;;10.26;98.28
17855;BME280;9053;53.358;6.382;2024-02-04T12:00:45;101691.69;;;10.26;98.26
17855;BME280;9053;53.358;6.382;2024-02-04T12:03:16;101684.97;;;10.31;98.41
17855;BME280;9053;53.358;6.382;2024-02-04T12:05:47;101677.22;;;10.34;98.29
17855;BME280;9053;53.358;6.382;2024-02-04T12:08:17;101678.34;;;10.39;98.35
17855;BME280;9053;53.358;6.382;2024-02-04T12:10:48;101682.75;;;10.40;98.30
17855;BME280;9053;53.358;6.382;2024-02-04T12:13:19;101682.91;;;10.44;98.43
17855;BME280;9053;53.358;6.382;2024-02-04T12:15:53;101683.88;;;10.46;98.35
17855;BME280;9053;53.358;6.382;2024-02-04T12:18:23;101689.88;;;10.43;98.21
17855;BME280;9053;53.358;6.382;2024-02-04T12:20:53;101696.22;;;10.47;98.40
17855;BME280;9053;53.358;6.382;2024-02-04T12:23:24;101691.19;;;10.51;98.52
17855;BME280;9053;53.358;6.382;2024-02-04T12:25:56;101686.13;;;10.56;98.54
17855;BME280;9053;53.358;6.382;2024-02-04T12:28:26;101688.81;;;10.57;98.34
17855;BME280;9053;53.358;6.382;2024-02-04T12:30:59;101700.09;;;10.55;98.39
17855;BME280;9053;53.358;6.382;2024-02-04T12:33:30;101703.72;;;10.57;98.38
17855;BME280;9053;53.358;6.382;2024-02-04T12:36:00;101685.06;;;10.52;98.25
17855;BME280;9053;53.358;6.382;2024-02-04T12:38:30;101677.28;;;10.54;98.21
17855;BME280;9053;53.358;6.382;2024-02-04T12:41:04;101668.41;;;10.52;98.14
17855;BME280;9053;53.358;6.382;2024-02-04T12:43:34;101685.97;;;10.53;98.04
17855;BME280;9053;53.358;6.382;2024-02-04T12:46:07;101686.72;;;10.50;98.04
17855;BME280;9053;53.358;6.382;2024-02-04T12:48:37;101668.41;;;10.52;97.96
17855;BME280;9053;53.358;6.382;2024-02-04T12:51:07;101672.69;;;10.50;97.87
17855;BME280;9053;53.358;6.382;2024-02-04T12:53:38;101669.06;;;10.48;97.81
17855;BME280;9053;53.358;6.382;2024-02-04T12:56:09;101667.38;;;10.48;97.74
17855;BME280;9053;53.358;6.382;2024-02-04T12:58:42;101657.75;;;10.49;97.71
17855;BME280;9053;53.358;6.382;2024-02-04T13:01:15;101664.78;;;10.50;97.60
17855;BME280;9053;53.358;6.382;2024-02-04T13:03:45;101663.81;;;10.48;97.57
17855;BME280;9053;53.358;6.382;2024-02-04T13:06:17;101649.69;;;10.46;97.64
17855;BME280;9053;53.358;6.382;2024-02-04T13:08:47;101655.03;;;10.47;97.62
17855;BME280;9053;53.358;6.382;2024-02-04T13:11:19;101655.69;;;10.43;97.61
17855;BME280;9053;53.358;6.382;2024-02-04T13:13:52;101628.47;;;10.41;97.58
17855;BME280;9053;53.358;6.382;2024-02-04T13:16:26;101636.19;;;10.38;97.64
17855;BME280;9053;53.358;6.382;2024-02-04T13:18:57;101631.75;;;10.37;97.72
17855;BME280;9053;53.358;6.382;2024-02-04T13:21:28;101627.25;;;10.34;97.75
17855;BME280;9053;53.358;6.382;2024-02-04T13:23:58;101633.34;;;10.33;97.91
17855;BME280;9053;53.358;6.382;2024-02-04T13:26:28;101626.13;;;10.29;97.95
17855;BME280;9053;53.358;6.382;2024-02-04T13:28:58;101630.56;;;10.30;98.17